createdAt,value
2017-12-21T00:00:06.383Z,101906.09
2017-12-21T00:02:33.839Z,101917.84
2017-12-21T00:05:02.812Z,101916.35
2017-12-21T00:07:32.026Z,101921.72
2017-12-21T00:09:59.487Z,101923.03
2017-12-21T00:12:27.300Z,101924.84
2017-12-21T00:14:54.753Z,101934.06
2017-12-21T00:17:24.111Z,101946.03
2017-12-21T00:19:51.618Z,101954.23
2017-12-21T00:22:31.100Z,101949.75
2017-12-21T00:24:59.322Z,101950.28
2017-12-21T00:27:26.816Z,101943.89
2017-12-21T00:29:54.682Z,101944.21
2017-12-21T00:32:22.220Z,101923.61
2017-12-21T00:34:49.734Z,101918.05
2017-12-21T00:37:17.481Z,101911.77
2017-12-21T00:39:46.427Z,101914.83
2017-12-21T00:42:14.387Z,101908.22
2017-12-21T00:44:43.061Z,101911.06
2017-12-21T00:47:11.237Z,101898.68
2017-12-21T00:49:44.538Z,101901.73
2017-12-21T00:52:12.826Z,101894.52
2017-12-21T00:54:41.171Z,101889.88
2017-12-21T00:57:09.147Z,101893.52
2017-12-21T00:59:37.478Z,101885.81
2017-12-21T01:02:05.787Z,101882.27
2017-12-21T01:04:34.165Z,101881.75
2017-12-21T01:07:03.303Z,101884.59
2017-12-21T01:09:32.464Z,101896.66
2017-12-21T01:12:00.541Z,101902.13
2017-12-21T01:14:28.532Z,101908.41
2017-12-21T01:16:56.759Z,101909.62
2017-12-21T01:19:26.685Z,101914.17
2017-12-21T01:21:54.896Z,101918.75
2017-12-21T01:24:23.243Z,101924.64
2017-12-21T01:26:51.529Z,101922.28
2017-12-21T01:29:19.981Z,101935.55
2017-12-21T01:31:47.964Z,101921.15
2017-12-21T01:34:16.626Z,101910.61
2017-12-21T01:36:44.623Z,101913.45
2017-12-21T01:39:12.873Z,101900.27
2017-12-21T01:41:40.427Z,101881.23
2017-12-21T01:44:08.352Z,101873.49
2017-12-21T01:46:37.824Z,101869.65
2017-12-21T01:49:07.947Z,101871.18
2017-12-21T01:51:35.398Z,101866.23
2017-12-21T01:54:02.917Z,101856.38
2017-12-21T01:56:30.682Z,101853.86
2017-12-21T01:58:58.590Z,101853.96
2017-12-21T02:01:26.429Z,101864.51
2017-12-21T02:03:53.952Z,101859.95
2017-12-21T02:06:22.265Z,101853.95
2017-12-21T02:08:50.567Z,101851.09
2017-12-21T02:11:19.430Z,101854.03
2017-12-21T02:13:46.870Z,101852.60
2017-12-21T02:16:14.324Z,101851.02
2017-12-21T02:18:42.828Z,101851.70
2017-12-21T02:26:55.550Z,101856.27
2017-12-21T02:29:32.948Z,101861.02
2017-12-21T02:32:01.281Z,101863.34
2017-12-21T02:34:28.720Z,101863.44
2017-12-21T02:36:56.183Z,101858.80
2017-12-21T02:39:47.567Z,101863.44
2017-12-21T02:42:15.269Z,101866.39
2017-12-21T02:44:42.997Z,101867.29
2017-12-21T02:47:11.590Z,101860.77
2017-12-21T02:49:39.050Z,101857.64
2017-12-21T02:52:06.536Z,101852.97
2017-12-21T02:54:34.267Z,101854.81
2017-12-21T02:57:01.755Z,101851.16
2017-12-21T02:59:29.278Z,101855.72
2017-12-21T03:01:57.330Z,101837.56
2017-12-21T03:04:25.707Z,101834.71
2017-12-21T03:06:54.780Z,101832.27
2017-12-21T03:09:36.764Z,101826.57
2017-12-21T03:12:04.461Z,101829.83
2017-12-21T03:14:31.934Z,101825.58
2017-12-21T03:16:59.526Z,101834.20
2017-12-21T03:19:36.624Z,101828.41
2017-12-21T03:22:04.695Z,101837.42
2017-12-21T03:24:32.483Z,101841.38
2017-12-21T03:27:00.888Z,101842.68
2017-12-21T03:29:42.610Z,101836.41
2017-12-21T03:32:10.123Z,101824.13
2017-12-21T03:34:37.641Z,101822.02
2017-12-21T03:37:05.435Z,101813.67
2017-12-21T03:39:32.983Z,101813.80
2017-12-21T03:42:00.477Z,101810.97
2017-12-21T03:44:27.939Z,101806.70
2017-12-21T03:46:55.448Z,101805.31
2017-12-21T03:49:46.600Z,101806.70
2017-12-21T03:52:14.109Z,101807.53
2017-12-21T03:54:41.567Z,101811.59
2017-12-21T03:57:09.073Z,101811.59
2017-12-21T03:59:36.589Z,101810.16
2017-12-21T04:02:04.144Z,101807.73
2017-12-21T04:04:31.607Z,101804.98
2017-12-21T04:06:59.775Z,101807.92
2017-12-21T04:09:46.486Z,101803.97
2017-12-21T04:12:14.018Z,101809.93
2017-12-21T04:14:41.464Z,101808.61
2017-12-21T04:17:09.883Z,101805.56
2017-12-21T04:19:37.342Z,101805.38
2017-12-21T04:22:05.029Z,101804.06
2017-12-21T04:24:33.196Z,101800.48
2017-12-21T04:27:00.785Z,101800.98
2017-12-21T04:29:28.272Z,101803.30
2017-12-21T04:31:55.691Z,101797.73
2017-12-21T04:34:23.218Z,101801.05
2017-12-21T04:36:50.729Z,101793.77
2017-12-21T04:39:18.258Z,101801.08
2017-12-21T04:41:45.780Z,101791.52
2017-12-21T04:44:13.242Z,101789.62
2017-12-21T04:46:40.749Z,101796.80
2017-12-21T04:49:08.713Z,101794.35
2017-12-21T04:51:36.158Z,101798.02
2017-12-21T04:54:03.599Z,101794.88
2017-12-21T04:56:31.170Z,101790.30
2017-12-21T04:58:58.640Z,101789.51
2017-12-21T05:01:27.218Z,101786.11
2017-12-21T05:03:54.791Z,101783.77
2017-12-21T05:06:22.313Z,101787.52
2017-12-21T05:08:49.814Z,101784.98
2017-12-21T05:11:17.289Z,101781.05
2017-12-21T05:13:44.806Z,101782.25
2017-12-21T05:16:12.884Z,101788.21
2017-12-21T05:18:40.389Z,101792.96
2017-12-21T05:21:07.868Z,101785.27
2017-12-21T05:23:35.380Z,101787.50
2017-12-21T05:26:02.908Z,101779.56
2017-12-21T05:28:30.448Z,101780.47
2017-12-21T05:30:58.101Z,101780.38
2017-12-21T05:33:25.571Z,101779.65
2017-12-21T05:35:53.112Z,101775.98
2017-12-21T05:38:20.599Z,101783.41
2017-12-21T05:40:48.082Z,101775.19
2017-12-21T05:43:15.617Z,101781.09
2017-12-21T05:45:43.314Z,101779.78
2017-12-21T05:48:10.798Z,101775.11
2017-12-21T05:50:38.274Z,101773.10
2017-12-21T05:53:05.795Z,101769.91
2017-12-21T05:55:33.266Z,101775.87
2017-12-21T05:58:00.765Z,101774.17
2017-12-21T06:00:28.270Z,101778.44
2017-12-21T06:02:55.785Z,101772.94
2017-12-21T06:05:24.282Z,101772.72
2017-12-21T06:07:51.753Z,101771.30
2017-12-21T06:10:19.301Z,101768.35
2017-12-21T06:12:47.048Z,101770.61
2017-12-21T06:15:14.532Z,101768.05
2017-12-21T06:17:42.005Z,101764.01
2017-12-21T06:20:09.455Z,101769.84
2017-12-21T06:22:38.325Z,101761.81
2017-12-21T06:25:06.159Z,101764.56
2017-12-21T06:27:33.606Z,101763.55
2017-12-21T06:30:02.424Z,101759.45
2017-12-21T06:32:32.063Z,101762.14
2017-12-21T06:34:59.565Z,101763.98
2017-12-21T06:37:27.080Z,101770.83
2017-12-21T06:39:55.600Z,101767.70
2017-12-21T06:42:23.498Z,101763.73
2017-12-21T06:44:50.978Z,101765.34
2017-12-21T06:47:18.448Z,101767.12
2017-12-21T06:49:45.951Z,101770.64
2017-12-21T06:52:13.687Z,101776.80
2017-12-21T06:54:41.877Z,101771.06
2017-12-21T06:57:09.374Z,101766.38
2017-12-21T06:59:36.938Z,101758.95
2017-12-21T07:02:04.670Z,101761.26
2017-12-21T07:04:32.367Z,101768.62
2017-12-21T07:06:59.966Z,101762.95
2017-12-21T07:09:27.476Z,101757.11
2017-12-21T07:11:55.422Z,101764.43
2017-12-21T07:14:22.852Z,101762.36
2017-12-21T07:16:50.331Z,101755.26
2017-12-21T07:19:17.786Z,101754.05
2017-12-21T07:21:45.248Z,101751.33
2017-12-21T07:24:12.798Z,101748.45
2017-12-21T07:26:40.268Z,101761.34
2017-12-21T07:29:07.767Z,101763.30
2017-12-21T07:31:35.281Z,101759.17
2017-12-21T07:34:02.929Z,101759.69
2017-12-21T07:36:30.447Z,101753.92
2017-12-21T07:38:58.486Z,101759.92
2017-12-21T07:41:30.938Z,101760.41
2017-12-21T07:43:58.916Z,101753.05
2017-12-21T07:46:26.370Z,101752.74
2017-12-21T07:48:53.899Z,101756.26
2017-12-21T07:51:21.597Z,101746.86
2017-12-21T07:53:49.439Z,101745.61
2017-12-21T07:56:16.913Z,101749.84
2017-12-21T07:58:44.764Z,101746.08
2017-12-21T08:01:12.242Z,101746.45
2017-12-21T08:03:40.177Z,101758.00
2017-12-21T08:06:07.650Z,101754.04
2017-12-21T08:08:35.122Z,101749.36
2017-12-21T08:11:26.274Z,101744.88
2017-12-21T08:13:53.758Z,101749.94
2017-12-21T08:16:21.212Z,101747.75
2017-12-21T08:18:48.878Z,101750.99
2017-12-21T08:21:16.413Z,101753.67
2017-12-21T08:23:43.904Z,101743.48
2017-12-21T08:26:11.358Z,101742.08
2017-12-21T08:28:40.460Z,101747.25
2017-12-21T08:31:07.915Z,101745.30
2017-12-21T08:33:35.404Z,101752.42
2017-12-21T08:36:02.862Z,101748.42
2017-12-21T08:38:32.267Z,101753.34
2017-12-21T08:40:59.805Z,101750.58
2017-12-21T08:43:27.274Z,101747.37
2017-12-21T08:45:58.861Z,101747.98
2017-12-21T08:48:27.423Z,101745.67
2017-12-21T08:51:18.589Z,101751.33
2017-12-21T08:53:46.039Z,101750.01
2017-12-21T08:56:14.316Z,101754.35
2017-12-21T08:58:41.788Z,101752.31
2017-12-21T09:01:09.302Z,101750.77
2017-12-21T09:03:37.357Z,101755.03
2017-12-21T09:06:04.881Z,101745.59
2017-12-21T09:08:32.308Z,101754.50
2017-12-21T09:11:09.489Z,101755.70
2017-12-21T09:13:37.937Z,101754.34
2017-12-21T09:16:08.528Z,101758.92
2017-12-21T09:18:35.995Z,101757.89
2017-12-21T09:23:55.990Z,101756.05
2017-12-21T09:26:23.424Z,101757.29
2017-12-21T09:28:50.956Z,101750.75
2017-12-21T09:31:20.971Z,101751.02
2017-12-21T09:33:48.609Z,101751.25
2017-12-21T09:36:17.266Z,101746.38
2017-12-21T09:38:45.079Z,101754.08
2017-12-21T09:41:12.559Z,101754.56
2017-12-21T09:43:40.120Z,101747.06
2017-12-21T09:46:07.713Z,101745.36
2017-12-21T09:48:36.109Z,101741.95
2017-12-21T09:51:27.302Z,101746.83
2017-12-21T09:53:54.836Z,101755.02
2017-12-21T09:56:22.579Z,101753.39
2017-12-21T09:58:50.433Z,101760.19
2017-12-21T10:01:18.035Z,101753.84
2017-12-21T10:06:19.821Z,101755.28
2017-12-21T10:08:47.971Z,101759.55
2017-12-21T10:11:15.449Z,101760.94
2017-12-21T10:13:43.679Z,101753.23
2017-12-21T10:16:11.128Z,101747.72
2017-12-21T10:18:38.633Z,101747.80
2017-12-21T10:21:06.136Z,101734.87
2017-12-21T10:23:34.028Z,101732.23
2017-12-21T10:26:01.486Z,101732.84
2017-12-21T10:28:29.065Z,101728.56
2017-12-21T10:33:48.904Z,101723.47
2017-12-21T10:36:17.196Z,101724.55
2017-12-21T10:38:44.780Z,101734.26
2017-12-21T10:41:12.238Z,101729.56
2017-12-21T10:43:39.724Z,101728.06
2017-12-21T10:46:07.320Z,101723.75
2017-12-21T10:48:34.856Z,101728.84
2017-12-21T10:51:07.284Z,101726.20
2017-12-21T10:53:34.805Z,101723.09
2017-12-21T10:56:02.574Z,101726.53
2017-12-21T10:58:30.094Z,101717.16
2017-12-21T11:00:57.657Z,101717.28
2017-12-21T11:03:25.130Z,101723.16
2017-12-21T11:05:52.643Z,101721.72
2017-12-21T11:08:20.112Z,101708.09
2017-12-21T11:10:47.568Z,101713.31
2017-12-21T11:13:15.056Z,101715.91
2017-12-21T11:15:42.585Z,101701.78
2017-12-21T11:18:10.147Z,101702.42
2017-12-21T11:20:38.669Z,101707.96
2017-12-21T11:23:07.279Z,101703.77
2017-12-21T11:25:35.432Z,101703.65
2017-12-21T11:28:02.953Z,101701.91
2017-12-21T11:30:31.322Z,101704.73
2017-12-21T11:32:58.844Z,101703.30
2017-12-21T11:35:26.665Z,101697.41
2017-12-21T11:37:54.156Z,101696.46
2017-12-21T11:40:21.591Z,101691.47
2017-12-21T11:42:49.106Z,101686.41
2017-12-21T11:45:16.570Z,101688.98
2017-12-21T11:47:44.088Z,101699.17
2017-12-21T11:50:11.569Z,101691.47
2017-12-21T11:52:39.111Z,101694.52
2017-12-21T11:55:06.641Z,101694.46
2017-12-21T11:57:34.535Z,101690.44
2017-12-21T12:00:16.405Z,101687.00
2017-12-21T12:02:45.165Z,101687.86
2017-12-21T12:05:12.668Z,101688.28
2017-12-21T12:07:41.298Z,101693.95
2017-12-21T12:10:08.845Z,101686.72
2017-12-21T12:12:36.428Z,101687.52
2017-12-21T12:15:03.919Z,101684.26
2017-12-21T12:17:31.467Z,101689.44
2017-12-21T12:20:18.241Z,101685.17
2017-12-21T12:22:45.729Z,101683.37
2017-12-21T12:25:13.197Z,101681.73
2017-12-21T12:27:40.978Z,101674.36
2017-12-21T12:30:08.573Z,101670.69
2017-12-21T12:32:36.069Z,101669.48
2017-12-21T12:35:03.581Z,101666.66
2017-12-21T12:37:31.130Z,101669.17
2017-12-21T12:39:58.701Z,101668.03
2017-12-21T12:42:26.193Z,101668.86
2017-12-21T12:44:53.663Z,101673.15
2017-12-21T12:47:21.234Z,101671.50
2017-12-21T12:49:48.716Z,101666.16
2017-12-21T12:52:16.198Z,101669.42
2017-12-21T12:54:43.686Z,101667.87
2017-12-21T12:57:11.971Z,101660.70
2017-12-21T12:59:39.431Z,101656.09
2017-12-21T13:02:08.716Z,101655.23
2017-12-21T13:04:36.182Z,101656.32
2017-12-21T13:07:04.636Z,101655.84
2017-12-21T13:09:41.725Z,101662.08
2017-12-21T13:12:09.197Z,101671.17
2017-12-21T13:14:37.036Z,101668.41
2017-12-21T13:17:04.538Z,101677.97
2017-12-21T13:19:32.047Z,101685.38
2017-12-21T13:21:59.608Z,101687.78
2017-12-21T13:24:27.268Z,101693.61
2017-12-21T13:26:54.724Z,101693.73
2017-12-21T13:29:22.226Z,101689.70
2017-12-21T13:31:49.704Z,101694.64
2017-12-21T13:34:17.194Z,101694.83
2017-12-21T13:36:44.721Z,101693.32
2017-12-21T13:39:12.192Z,101688.80
2017-12-21T13:41:39.704Z,101692.00
2017-12-21T13:44:07.270Z,101692.11
2017-12-21T13:46:34.773Z,101690.00
2017-12-21T13:49:02.247Z,101686.44
2017-12-21T13:51:29.718Z,101682.41
2017-12-21T13:53:57.187Z,101682.06
2017-12-21T13:56:24.729Z,101690.67
2017-12-21T13:58:52.217Z,101689.41
2017-12-21T14:01:19.671Z,101689.89
2017-12-21T14:03:47.188Z,101688.80
2017-12-21T14:06:14.749Z,101684.42
2017-12-21T14:08:42.278Z,101688.98
2017-12-21T14:11:09.741Z,101692.84
2017-12-21T14:13:37.188Z,101687.36
2017-12-21T14:16:04.654Z,101690.98
2017-12-21T14:18:32.182Z,101697.24
2017-12-21T14:20:59.622Z,101703.06
2017-12-21T14:23:27.094Z,101703.42
2017-12-21T14:25:54.578Z,101706.98
2017-12-21T14:28:22.049Z,101700.61
2017-12-21T14:30:49.702Z,101702.70
2017-12-21T14:33:17.197Z,101700.61
2017-12-21T14:35:44.693Z,101697.05
2017-12-21T14:38:12.267Z,101704.81
2017-12-21T14:40:39.803Z,101708.44
2017-12-21T14:43:07.338Z,101708.67
2017-12-21T14:45:35.246Z,101709.41
2017-12-21T14:48:02.774Z,101710.73
2017-12-21T14:50:30.273Z,101713.55
2017-12-21T14:52:57.787Z,101717.02
2017-12-21T14:55:25.252Z,101719.14
2017-12-21T14:57:52.774Z,101726.65
2017-12-21T15:00:20.201Z,101729.62
2017-12-21T15:02:47.723Z,101731.41
2017-12-21T15:05:15.214Z,101738.21
2017-12-21T15:07:42.669Z,101737.80
2017-12-21T15:10:10.130Z,101745.69
2017-12-21T15:12:37.586Z,101743.69
2017-12-21T15:15:05.164Z,101745.86
2017-12-21T15:17:32.609Z,101742.74
2017-12-21T15:20:00.128Z,101751.39
2017-12-21T15:22:27.577Z,101756.58
2017-12-21T15:24:55.617Z,101756.69
2017-12-21T15:27:23.214Z,101764.69
2017-12-21T15:29:50.650Z,101767.69
2017-12-21T15:32:19.007Z,101770.22
2017-12-21T15:34:46.474Z,101767.64
2017-12-21T15:37:13.983Z,101778.79
2017-12-21T15:39:41.648Z,101772.52
2017-12-21T15:42:09.150Z,101782.37
2017-12-21T15:44:36.674Z,101775.77
2017-12-21T15:47:04.791Z,101779.15
2017-12-21T15:49:32.294Z,101782.88
2017-12-21T15:51:59.813Z,101784.62
2017-12-21T15:54:27.527Z,101792.16
2017-12-21T15:56:55.090Z,101797.56
2017-12-21T15:59:22.764Z,101797.69
2017-12-21T16:01:53.847Z,101792.98
2017-12-21T16:04:23.526Z,101787.50
2017-12-21T16:06:51.083Z,101793.30
2017-12-21T16:09:18.672Z,101802.07
2017-12-21T16:11:55.764Z,101794.39
2017-12-21T16:14:23.330Z,101800.92
2017-12-21T16:16:50.818Z,101787.69
2017-12-21T16:19:18.374Z,101774.70
2017-12-21T16:21:45.856Z,101778.80
2017-12-21T16:24:13.382Z,101788.41
2017-12-21T16:26:41.819Z,101789.67
2017-12-21T16:29:11.234Z,101794.50
2017-12-21T16:31:38.717Z,101790.14
2017-12-21T16:34:06.389Z,101779.94
2017-12-21T16:36:33.942Z,101794.17
2017-12-21T16:39:01.405Z,101794.48
2017-12-21T16:41:28.864Z,101810.71
2017-12-21T16:43:56.922Z,101816.69
2017-12-21T16:46:24.464Z,101823.19
2017-12-21T16:48:51.953Z,101825.07
2017-12-21T16:51:29.021Z,101830.55
2017-12-21T16:53:56.478Z,101826.16
2017-12-21T16:56:23.938Z,101827.22
2017-12-21T16:58:51.390Z,101831.33
2017-12-21T17:01:18.922Z,101829.45
2017-12-21T17:03:46.426Z,101838.67
2017-12-21T17:06:13.985Z,101839.38
2017-12-21T17:08:41.445Z,101841.50
2017-12-21T17:11:08.926Z,101838.67
2017-12-21T17:13:36.396Z,101833.37
2017-12-21T17:16:03.816Z,101839.02
2017-12-21T17:18:31.305Z,101826.02
2017-12-21T17:20:58.844Z,101826.39
2017-12-21T17:23:27.233Z,101835.84
2017-12-21T17:25:54.700Z,101831.02
2017-12-21T17:28:22.231Z,101833.19
2017-12-21T17:30:49.776Z,101832.58
2017-12-21T17:33:17.240Z,101846.14
2017-12-21T17:35:44.805Z,101852.19
2017-12-21T17:38:12.387Z,101858.10
2017-12-21T17:40:39.996Z,101869.66
2017-12-21T17:43:08.618Z,101882.81
2017-12-21T17:45:36.308Z,101882.39
2017-12-21T17:48:04.000Z,101870.91
2017-12-21T17:50:32.274Z,101872.83
2017-12-21T17:53:00.915Z,101868.06
2017-12-21T17:55:28.460Z,101878.02
2017-12-21T17:57:56.080Z,101875.06
2017-12-21T18:00:23.701Z,101880.89
2017-12-21T18:02:51.430Z,101878.86
2017-12-21T18:05:18.895Z,101876.44
2017-12-21T18:07:46.364Z,101873.72
2017-12-21T18:10:13.820Z,101876.72
2017-12-21T18:12:41.336Z,101891.46
2017-12-21T18:15:09.147Z,101895.66
2017-12-21T18:17:36.821Z,101892.12
2017-12-21T18:20:04.282Z,101882.86
2017-12-21T18:22:32.442Z,101893.44
2017-12-21T18:25:02.920Z,101918.39
2017-12-21T18:27:30.392Z,101921.24
2017-12-21T18:29:58.792Z,101925.26
2017-12-21T18:32:26.682Z,101925.48
2017-12-21T18:34:54.182Z,101916.68
2017-12-21T18:37:21.648Z,101914.41
2017-12-21T18:39:49.092Z,101913.02
2017-12-21T18:42:16.663Z,101914.08
2017-12-21T18:44:44.148Z,101909.62
2017-12-21T18:47:12.806Z,101914.06
2017-12-21T18:49:41.239Z,101911.25
2017-12-21T18:52:08.784Z,101917.58
2017-12-21T18:54:36.321Z,101935.38
2017-12-21T18:57:03.768Z,101946.99
2017-12-21T18:59:31.273Z,101951.56
2017-12-21T19:01:58.774Z,101946.99
2017-12-21T19:04:27.041Z,101931.57
2017-12-21T19:06:54.523Z,101927.22
2017-12-21T19:09:24.965Z,101918.83
2017-12-21T19:11:52.862Z,101905.23
2017-12-21T19:14:20.526Z,101897.83
2017-12-21T19:16:48.007Z,101904.23
2017-12-21T19:19:15.593Z,101920.63
2017-12-21T19:21:52.861Z,101923.05
2017-12-21T19:24:20.376Z,101924.78
2017-12-21T19:26:47.882Z,101936.08
2017-12-21T19:29:15.527Z,101932.53
2017-12-21T19:31:48.153Z,101929.77
2017-12-21T19:34:15.767Z,101934.05
2017-12-21T19:36:43.256Z,101929.47
2017-12-21T19:41:44.837Z,101933.52
2017-12-21T19:44:12.421Z,101938.69
2017-12-21T19:46:40.648Z,101938.87
2017-12-21T19:49:08.939Z,101942.44
2017-12-21T19:51:37.419Z,101945.00
2017-12-21T19:54:06.910Z,101952.25
2017-12-21T19:56:34.700Z,101950.21
2017-12-21T19:59:02.455Z,101943.00
2017-12-21T20:01:30.038Z,101946.20
2017-12-21T20:03:58.046Z,101938.35
2017-12-21T20:06:26.037Z,101954.78
2017-12-21T20:08:53.545Z,101959.84
2017-12-21T20:11:26.159Z,101967.55
2017-12-21T20:13:53.654Z,101957.30
2017-12-21T20:16:21.194Z,101960.78
2017-12-21T20:18:48.966Z,101970.89
2017-12-21T20:21:16.556Z,101984.09
2017-12-21T20:23:44.098Z,101974.98
2017-12-21T20:26:12.477Z,101979.37
2017-12-21T20:28:40.033Z,101970.34
2017-12-21T20:31:07.586Z,101955.60
2017-12-21T20:33:35.154Z,101941.58
2017-12-21T20:36:02.868Z,101941.39
2017-12-21T20:38:30.431Z,101934.52
2017-12-21T20:40:57.952Z,101933.95
2017-12-21T20:43:26.292Z,101930.05
2017-12-21T20:45:53.763Z,101939.94
2017-12-21T20:48:21.352Z,101945.06
2017-12-21T20:50:48.866Z,101940.51
2017-12-21T20:53:16.421Z,101944.62
2017-12-21T20:55:43.977Z,101945.64
2017-12-21T20:58:11.507Z,101942.66
2017-12-21T21:00:39.082Z,101949.88
2017-12-21T21:03:06.796Z,101961.00
2017-12-21T21:05:34.329Z,101959.84
2017-12-21T21:08:02.073Z,101957.62
2017-12-21T21:10:29.935Z,101956.23
2017-12-21T21:12:57.405Z,101957.59
2017-12-21T21:15:26.320Z,101950.91
2017-12-21T21:17:56.316Z,101956.99
2017-12-21T21:20:23.865Z,101956.77
2017-12-21T21:22:51.369Z,101941.63
2017-12-21T21:25:18.914Z,101944.45
2017-12-21T21:27:46.424Z,101954.27
2017-12-21T21:30:13.914Z,101957.70
2017-12-21T21:32:41.429Z,101955.92
2017-12-21T21:35:08.909Z,101966.11
2017-12-21T21:37:38.676Z,101964.19
2017-12-21T21:40:06.454Z,101964.52
2017-12-21T21:42:33.967Z,101956.56
2017-12-21T21:45:01.788Z,101956.59
2017-12-21T21:47:29.824Z,101954.06
2017-12-21T21:49:57.618Z,101956.17
2017-12-21T21:52:25.264Z,101951.14
2017-12-21T21:54:54.604Z,101942.89
2017-12-21T21:57:23.743Z,101946.39
2017-12-21T22:00:06.500Z,101944.63
2017-12-21T22:02:35.360Z,101943.00
2017-12-21T22:05:03.716Z,101949.83
2017-12-21T22:07:32.000Z,101952.20
2017-12-21T22:10:05.772Z,101952.20
2017-12-21T22:12:33.537Z,101950.55
2017-12-21T22:15:01.353Z,101952.20
2017-12-21T22:17:28.901Z,101950.27
2017-12-21T22:20:06.100Z,101953.27
2017-12-21T22:22:34.917Z,101946.14
2017-12-21T22:25:02.908Z,101950.41
2017-12-21T22:27:31.515Z,101956.20
2017-12-21T22:38:37.203Z,101957.41
2017-12-21T22:41:06.186Z,101957.41
2017-12-21T22:43:33.673Z,101955.70
2017-12-21T22:46:02.030Z,101956.61
2017-12-21T22:48:30.008Z,101961.17
2017-12-21T22:51:02.475Z,101956.19
2017-12-21T22:53:30.059Z,101958.14
2017-12-21T22:55:58.779Z,101960.28
2017-12-21T22:58:26.261Z,101958.27
2017-12-21T23:00:54.196Z,101949.24
2017-12-21T23:03:21.655Z,101946.20
2017-12-21T23:05:49.130Z,101948.95
2017-12-21T23:08:16.605Z,101950.48
2017-12-21T23:10:44.071Z,101952.21
2017-12-21T23:13:11.523Z,101959.91
2017-12-21T23:15:39.880Z,101957.49
2017-12-21T23:18:09.007Z,101955.69
2017-12-21T23:20:38.631Z,101951.05
2017-12-21T23:23:06.087Z,101949.72
2017-12-21T23:25:34.244Z,101949.11
2017-12-21T23:28:01.789Z,101947.18
2017-12-21T23:30:29.364Z,101944.07
2017-12-21T23:32:56.886Z,101949.05
2017-12-21T23:35:24.417Z,101950.38
2017-12-21T23:37:51.904Z,101946.73
2017-12-21T23:40:19.608Z,101954.76
2017-12-21T23:42:47.131Z,101951.83
2017-12-21T23:45:14.624Z,101963.41
2017-12-21T23:47:42.124Z,101960.05
2017-12-21T23:50:09.587Z,101954.89
2017-12-21T23:52:37.030Z,101952.56
2017-12-21T23:55:04.520Z,101956.32
2017-12-21T23:57:31.979Z,101949.83
2017-12-21T23:59:59.430Z,101952.88
